createdAt,value
2023-04-17T00:00:29.486Z,7.67
2023-04-17T00:03:01.840Z,7.63
2023-04-17T00:05:31.955Z,7.57
2023-04-17T00:08:02.754Z,7.54
2023-04-17T00:10:30.749Z,7.56
2023-04-17T00:12:58.596Z,7.59
2023-04-17T00:15:26.816Z,7.58
2023-04-17T00:17:55.625Z,7.58
2023-04-17T00:20:23.638Z,7.62
2023-04-17T00:22:51.809Z,7.62
2023-04-17T00:25:19.725Z,7.60
2023-04-17T00:27:47.813Z,7.63
2023-04-17T00:30:15.820Z,7.63
2023-04-17T00:32:44.586Z,7.66
2023-04-17T00:35:12.586Z,7.67
2023-04-17T00:37:40.789Z,7.70
2023-04-17T00:40:10.447Z,7.73
2023-04-17T00:42:38.567Z,7.73
2023-04-17T00:45:10.773Z,7.73
2023-04-17T00:47:39.442Z,7.69
2023-04-17T00:50:07.635Z,7.64
2023-04-17T00:52:36.041Z,7.65
2023-04-17T00:55:04.178Z,7.69
2023-04-17T00:57:32.889Z,7.70
2023-04-17T01:00:00.722Z,7.73
2023-04-17T01:02:28.794Z,7.77
2023-04-17T01:04:57.155Z,7.83
2023-04-17T01:07:25.104Z,7.83
2023-04-17T01:09:53.929Z,7.80
2023-04-17T01:12:23.901Z,7.79
2023-04-17T01:14:55.678Z,7.79
2023-04-17T01:17:23.929Z,7.80
2023-04-17T01:19:51.919Z,7.81
2023-04-17T01:22:22.859Z,7.79
2023-04-17T01:24:52.315Z,7.81
2023-04-17T01:27:22.580Z,7.82
2023-04-17T01:29:50.921Z,7.85
2023-04-17T01:32:19.460Z,7.90
2023-04-17T01:34:47.347Z,7.92
2023-04-17T01:37:15.380Z,7.98
2023-04-17T01:39:43.464Z,8.03
2023-04-17T01:42:11.337Z,8.05
2023-04-17T01:44:39.465Z,8.04
2023-04-17T01:47:07.401Z,8.05
2023-04-17T01:49:35.525Z,8.05
2023-04-17T01:52:03.371Z,8.01
2023-04-17T01:54:31.592Z,7.97
2023-04-17T01:56:59.607Z,7.95
2023-04-17T01:59:27.758Z,7.89
2023-04-17T02:01:56.575Z,7.89
2023-04-17T02:04:24.644Z,7.89
2023-04-17T02:06:52.807Z,7.90
2023-04-17T02:09:20.890Z,7.94
2023-04-17T02:11:48.815Z,7.93
2023-04-17T02:14:17.766Z,7.90
2023-04-17T02:16:48.491Z,7.90
2023-04-17T02:19:16.490Z,7.91
2023-04-17T02:21:44.576Z,7.95
2023-04-17T02:24:12.407Z,8.00
2023-04-17T02:26:40.773Z,8.03
2023-04-17T02:29:08.675Z,8.09
2023-04-17T02:31:37.608Z,8.20
2023-04-17T02:34:05.602Z,8.27
2023-04-17T02:36:33.562Z,8.25
2023-04-17T02:39:01.794Z,8.23
2023-04-17T02:41:30.018Z,8.28
2023-04-17T02:44:00.438Z,8.34
2023-04-17T02:46:28.405Z,8.43
2023-04-17T02:48:56.802Z,8.51
2023-04-17T02:51:24.647Z,8.57
2023-04-17T02:53:52.580Z,8.62
2023-04-17T02:56:20.709Z,8.63
2023-04-17T02:58:48.605Z,8.64
2023-04-17T03:01:16.739Z,8.65
2023-04-17T03:03:45.877Z,8.70
2023-04-17T03:06:14.940Z,8.73
2023-04-17T03:08:43.479Z,8.68
2023-04-17T03:11:11.645Z,8.68
2023-04-17T03:13:39.518Z,8.72
2023-04-17T03:16:07.464Z,8.72
2023-04-17T03:18:39.221Z,8.68
2023-04-17T03:21:07.897Z,8.63
2023-04-17T03:23:37.649Z,8.56
2023-04-17T03:26:06.656Z,8.57
2023-04-17T03:28:35.142Z,8.62
2023-04-17T03:31:03.432Z,8.65
2023-04-17T03:33:32.192Z,8.66
2023-04-17T03:36:00.167Z,8.66
2023-04-17T03:38:28.195Z,8.70
2023-04-17T03:40:56.163Z,8.69
2023-04-17T03:43:25.034Z,8.67
2023-04-17T03:45:53.089Z,8.70
2023-04-17T03:48:21.717Z,8.75
2023-04-17T03:50:51.778Z,8.80
2023-04-17T03:53:19.926Z,8.76
2023-04-17T03:55:49.030Z,8.71
2023-04-17T03:58:24.599Z,8.69
2023-04-17T04:00:55.585Z,8.70
2023-04-17T04:03:25.620Z,8.74
2023-04-17T04:05:54.194Z,8.80
2023-04-17T04:08:22.388Z,8.83
2023-04-17T04:10:52.575Z,8.85
2023-04-17T04:13:24.494Z,8.85
2023-04-17T04:15:58.895Z,8.86
2023-04-17T04:18:29.710Z,8.87
2023-04-17T04:20:57.750Z,8.89
2023-04-17T04:23:30.879Z,8.94
2023-04-17T04:26:01.779Z,9.00
2023-04-17T04:28:40.850Z,9.00
2023-04-17T04:31:11.024Z,8.97
2023-04-17T04:33:41.876Z,8.89
2023-04-17T04:36:09.989Z,8.85
2023-04-17T04:38:38.132Z,8.85
2023-04-17T04:41:13.186Z,8.84
2023-04-17T04:43:42.463Z,8.82
2023-04-17T04:46:11.676Z,8.81
2023-04-17T04:48:43.671Z,8.83
2023-04-17T04:51:13.927Z,8.80
2023-04-17T04:53:42.250Z,8.74
2023-04-17T04:56:11.632Z,8.73
2023-04-17T04:58:41.054Z,8.72
2023-04-17T05:01:11.153Z,8.71
2023-04-17T05:03:47.077Z,8.72
2023-04-17T05:06:20.691Z,8.70
2023-04-17T05:08:52.097Z,8.66
2023-04-17T05:11:20.333Z,8.64
2023-04-17T05:13:49.012Z,8.66
2023-04-17T05:16:21.369Z,8.71
2023-04-17T05:18:49.932Z,8.73
2023-04-17T05:21:22.373Z,8.71
2023-04-17T05:23:52.621Z,8.68
2023-04-17T05:26:22.211Z,8.66
2023-04-17T05:28:52.305Z,8.66
2023-04-17T05:31:25.219Z,8.67
2023-04-17T05:33:55.134Z,8.67
2023-04-17T05:36:27.108Z,8.69
2023-04-17T05:38:58.434Z,8.73
2023-04-17T05:41:29.018Z,8.74
2023-04-17T05:43:58.996Z,8.75
2023-04-17T05:46:32.015Z,8.81
2023-04-17T05:49:01.993Z,8.84
2023-04-17T05:51:34.024Z,8.86
2023-04-17T05:54:05.118Z,8.88
2023-04-17T05:56:37.056Z,8.88
2023-04-17T05:59:08.079Z,8.88
2023-04-17T06:01:39.641Z,8.86
2023-04-17T06:04:09.517Z,8.87
2023-04-17T06:06:38.983Z,8.88
2023-04-17T06:09:10.312Z,8.90
2023-04-17T06:11:40.503Z,8.92
2023-04-17T06:14:11.017Z,8.93
2023-04-17T06:16:42.126Z,8.97
2023-04-17T06:19:12.329Z,9.00
2023-04-17T06:29:19.131Z,9.14
2023-04-17T06:31:47.363Z,9.17
2023-04-17T06:34:17.537Z,9.21
2023-04-17T06:36:46.585Z,9.24
2023-04-17T06:39:16.441Z,9.25
2023-04-17T06:41:44.994Z,9.23
2023-04-17T06:44:13.360Z,9.20
2023-04-17T06:46:46.420Z,9.16
2023-04-17T06:49:15.323Z,9.14
2023-04-17T06:51:45.983Z,9.12
2023-04-17T06:54:14.338Z,9.15
2023-04-17T06:56:42.514Z,9.18
2023-04-17T06:59:11.612Z,9.20
2023-04-17T07:01:40.659Z,9.17
2023-04-17T07:04:10.248Z,9.17
2023-04-17T07:06:39.622Z,9.18
2023-04-17T07:09:07.554Z,9.18
2023-04-17T07:11:35.828Z,9.15
2023-04-17T07:14:03.836Z,9.13
2023-04-17T07:16:34.017Z,9.11
2023-04-17T07:19:02.112Z,9.10
2023-04-17T07:21:30.192Z,9.11
2023-04-17T07:23:58.292Z,9.09
2023-04-17T07:26:26.657Z,9.10
2023-04-17T07:28:54.891Z,9.11
2023-04-17T07:31:22.949Z,9.11
2023-04-17T07:33:51.167Z,9.12
2023-04-17T07:36:19.124Z,9.12
2023-04-17T07:38:47.280Z,9.11
2023-04-17T07:41:16.530Z,9.10
2023-04-17T07:43:44.422Z,9.10
2023-04-17T07:46:12.398Z,9.11
2023-04-17T07:48:40.696Z,9.13
2023-04-17T07:51:08.971Z,9.20
2023-04-17T07:53:37.545Z,9.30
2023-04-17T07:56:06.650Z,9.39
2023-04-17T07:58:35.959Z,9.47
2023-04-17T08:01:05.797Z,9.52
2023-04-17T08:03:34.141Z,9.54
2023-04-17T08:06:02.419Z,9.54
2023-04-17T08:08:30.914Z,9.52
2023-04-17T08:10:58.998Z,9.54
2023-04-17T08:13:27.469Z,9.60
2023-04-17T08:15:55.497Z,9.67
2023-04-17T08:18:23.443Z,9.73
2023-04-17T08:20:52.824Z,9.78
2023-04-17T08:23:21.260Z,9.78
2023-04-17T08:25:49.307Z,9.78
2023-04-17T08:28:17.376Z,9.81
2023-04-17T08:30:45.454Z,9.88
2023-04-17T08:33:13.896Z,9.93
2023-04-17T08:35:41.967Z,9.96
2023-04-17T08:38:14.189Z,9.99
2023-04-17T08:40:43.184Z,10.02
2023-04-17T08:43:15.204Z,10.05
2023-04-17T08:45:53.944Z,10.09
2023-04-17T08:48:22.868Z,10.15
2023-04-17T08:50:51.927Z,10.20
2023-04-17T08:53:21.223Z,10.23
2023-04-17T08:55:49.284Z,10.27
2023-04-17T08:58:17.963Z,10.30
2023-04-17T09:00:46.029Z,10.30
2023-04-17T09:03:14.580Z,10.32
2023-04-17T09:05:46.082Z,10.35
2023-04-17T09:08:20.991Z,10.34
2023-04-17T09:10:52.793Z,10.33
2023-04-17T09:13:25.146Z,10.31
2023-04-17T09:16:07.428Z,10.32
2023-04-17T09:18:36.499Z,10.31
2023-04-17T09:21:05.032Z,10.29
2023-04-17T09:23:49.718Z,10.29
2023-04-17T09:26:24.791Z,10.29
2023-04-17T09:29:07.836Z,10.29
2023-04-17T09:31:37.559Z,10.31
2023-04-17T09:34:16.637Z,10.32
2023-04-17T09:36:44.677Z,10.35
2023-04-17T09:39:20.700Z,10.39
2023-04-17T09:41:49.179Z,10.41
2023-04-17T09:44:27.279Z,10.44
2023-04-17T09:46:55.250Z,10.49
2023-04-17T09:49:36.615Z,10.55
2023-04-17T09:52:04.790Z,10.64
2023-04-17T09:54:38.148Z,10.70
2023-04-17T09:57:08.303Z,10.77
2023-04-17T09:59:41.395Z,10.83
2023-04-17T10:02:10.301Z,10.90
2023-04-17T10:04:40.834Z,10.98
2023-04-17T10:07:09.636Z,11.05
2023-04-17T10:09:40.163Z,11.12
2023-04-17T10:12:15.213Z,11.23
2023-04-17T10:14:48.580Z,11.37
2023-04-17T10:17:23.953Z,11.49
2023-04-17T10:19:52.302Z,11.60
2023-04-17T10:22:28.567Z,11.71
2023-04-17T10:25:12.875Z,11.83
2023-04-17T10:27:41.627Z,11.94
2023-04-17T10:30:13.398Z,12.04
2023-04-17T10:32:46.152Z,12.15
2023-04-17T10:35:17.166Z,12.22
2023-04-17T10:37:49.066Z,12.33
2023-04-17T10:40:21.287Z,12.42
2023-04-17T10:43:02.044Z,12.53
2023-04-17T10:45:50.916Z,12.64
2023-04-17T10:48:29.148Z,12.76
2023-04-17T10:50:57.344Z,12.87
2023-04-17T10:53:39.277Z,12.97
2023-04-17T10:56:08.942Z,13.04
2023-04-17T10:58:41.963Z,13.11
2023-04-17T11:01:11.103Z,13.19
2023-04-17T11:03:39.210Z,13.26
2023-04-17T11:06:07.672Z,13.37
2023-04-17T11:08:35.950Z,13.45
2023-04-17T11:11:04.311Z,13.46
2023-04-17T11:13:34.050Z,13.49
2023-04-17T11:16:03.434Z,13.55
2023-04-17T11:18:31.760Z,13.62
2023-04-17T11:20:59.830Z,13.72
2023-04-17T11:23:32.540Z,13.80
2023-04-17T11:26:00.605Z,13.89
2023-04-17T11:28:31.231Z,13.98
2023-04-17T11:30:59.349Z,14.08
2023-04-17T11:33:28.752Z,14.21
2023-04-17T11:35:56.929Z,14.35
2023-04-17T11:38:25.242Z,14.49
2023-04-17T11:40:55.730Z,14.60
2023-04-17T11:43:23.826Z,14.70
2023-04-17T11:45:52.943Z,14.80
2023-04-17T11:48:23.111Z,14.89
2023-04-17T11:50:54.141Z,14.97
2023-04-17T11:53:22.520Z,15.02
2023-04-17T11:56:10.594Z,15.01
2023-04-17T11:58:53.176Z,14.96
2023-04-17T12:01:25.050Z,15.01
2023-04-17T12:03:54.231Z,15.04
2023-04-17T12:06:22.725Z,15.03
2023-04-17T12:08:51.549Z,15.06
2023-04-17T12:11:25.634Z,15.06
2023-04-17T12:13:54.316Z,15.07
2023-04-17T12:16:29.331Z,15.12
2023-04-17T12:18:57.644Z,15.09
2023-04-17T12:21:25.700Z,15.09
2023-04-17T12:23:53.795Z,15.11
2023-04-17T12:26:22.245Z,15.07
2023-04-17T12:28:51.054Z,15.04
2023-04-17T12:31:19.051Z,15.01
2023-04-17T12:33:47.730Z,15.02
2023-04-17T12:36:16.239Z,15.06
2023-04-17T12:38:44.290Z,15.08
2023-04-17T12:41:16.137Z,15.06
2023-04-17T12:43:44.021Z,15.09
2023-04-17T12:46:12.074Z,15.15
2023-04-17T12:48:40.588Z,15.14
2023-04-17T12:51:08.569Z,15.16
2023-04-17T12:53:36.707Z,15.21
2023-04-17T12:56:05.087Z,15.25
2023-04-17T12:58:33.220Z,15.28
2023-04-17T13:01:01.426Z,15.30
2023-04-17T13:03:29.902Z,15.34
2023-04-17T13:05:58.114Z,15.41
2023-04-17T13:08:26.149Z,15.46
2023-04-17T13:10:54.191Z,15.55
2023-04-17T13:13:22.567Z,15.61
2023-04-17T13:15:50.866Z,15.65
2023-04-17T13:18:19.169Z,15.65
2023-04-17T13:20:47.082Z,15.62
2023-04-17T13:23:16.028Z,15.59
2023-04-17T13:25:43.998Z,15.59
2023-04-17T13:28:12.152Z,15.61
2023-04-17T13:30:40.308Z,15.65
2023-04-17T13:33:08.905Z,15.61
2023-04-17T13:35:37.319Z,15.59
2023-04-17T13:38:05.937Z,15.58
2023-04-17T13:40:34.044Z,15.54
2023-04-17T13:43:02.252Z,15.49
2023-04-17T13:45:30.262Z,15.45
2023-04-17T13:48:00.405Z,15.41
2023-04-17T13:50:28.929Z,15.37
2023-04-17T13:52:57.244Z,15.36
2023-04-17T13:55:25.313Z,15.34
2023-04-17T13:57:54.343Z,15.31
2023-04-17T14:00:22.690Z,15.31
2023-04-17T14:02:51.113Z,15.36
2023-04-17T14:05:19.447Z,15.44
2023-04-17T14:07:48.567Z,15.44
2023-04-17T14:10:16.891Z,15.43
2023-04-17T14:12:45.866Z,15.46
2023-04-17T14:15:14.630Z,15.45
2023-04-17T14:17:43.451Z,15.44
2023-04-17T14:20:12.413Z,15.42
2023-04-17T14:22:40.709Z,15.39
2023-04-17T14:25:09.526Z,15.35
2023-04-17T14:27:38.842Z,15.28
2023-04-17T14:30:07.742Z,15.22
2023-04-17T14:32:38.779Z,15.17
2023-04-17T14:35:07.567Z,15.16
2023-04-17T14:37:35.991Z,15.12
2023-04-17T14:40:05.084Z,15.07
2023-04-17T14:42:40.737Z,15.00
2023-04-17T14:45:21.691Z,14.97
2023-04-17T14:47:49.967Z,14.95
2023-04-17T14:50:18.432Z,14.94
2023-04-17T14:52:46.628Z,14.95
2023-04-17T14:55:14.760Z,14.97
2023-04-17T14:57:42.802Z,15.02
2023-04-17T15:00:11.143Z,15.03
2023-04-17T15:02:39.673Z,15.00
2023-04-17T15:05:08.262Z,14.97
2023-04-17T15:07:38.629Z,14.97
2023-04-17T15:10:07.189Z,14.98
2023-04-17T15:12:35.574Z,14.99
2023-04-17T15:15:03.890Z,15.00
2023-04-17T15:17:32.946Z,14.99
2023-04-17T15:20:01.410Z,14.95
2023-04-17T15:22:29.626Z,14.95
2023-04-17T15:24:57.862Z,14.96
2023-04-17T15:27:26.026Z,14.94
2023-04-17T15:29:54.179Z,14.91
2023-04-17T15:32:22.257Z,14.88
2023-04-17T15:34:50.866Z,14.84
2023-04-17T15:37:19.296Z,14.79
2023-04-17T15:39:48.457Z,14.75
2023-04-17T15:42:16.646Z,14.71
2023-04-17T15:44:46.249Z,14.71
2023-04-17T15:47:14.404Z,14.68
2023-04-17T15:49:43.414Z,14.65
2023-04-17T15:52:11.409Z,14.61
2023-04-17T15:54:39.565Z,14.57
2023-04-17T15:57:07.595Z,14.53
2023-04-17T15:59:36.392Z,14.50
2023-04-17T16:02:04.550Z,14.46
2023-04-17T16:04:34.450Z,14.39
2023-04-17T16:07:02.735Z,14.32
2023-04-17T16:09:32.591Z,14.28
2023-04-17T16:12:02.849Z,14.23
2023-04-17T16:14:30.909Z,14.18
2023-04-17T16:17:00.050Z,14.13
2023-04-17T16:19:28.001Z,14.09
2023-04-17T16:21:57.659Z,14.04
2023-04-17T16:24:28.012Z,13.96
2023-04-17T16:26:57.529Z,13.88
2023-04-17T16:29:25.701Z,13.79
2023-04-17T16:31:54.331Z,13.72
2023-04-17T16:34:22.572Z,13.66
2023-04-17T16:36:54.123Z,13.62
2023-04-17T16:39:22.120Z,13.56
2023-04-17T16:41:52.414Z,13.49
2023-04-17T16:44:21.173Z,13.44
2023-04-17T16:47:09.435Z,13.40
2023-04-17T16:49:37.293Z,13.33
2023-04-17T16:52:05.765Z,13.28
2023-04-17T16:54:34.224Z,13.22
2023-04-17T16:57:02.295Z,13.17
2023-04-17T16:59:30.544Z,13.11
2023-04-17T17:02:01.384Z,13.04
2023-04-17T17:04:30.677Z,12.96
2023-04-17T17:06:58.975Z,12.89
2023-04-17T17:09:27.076Z,12.83
2023-04-17T17:11:55.133Z,12.76
2023-04-17T17:14:23.692Z,12.71
2023-04-17T17:16:53.991Z,12.65
2023-04-17T17:19:22.132Z,12.58
2023-04-17T17:21:50.187Z,12.51
2023-04-17T17:24:18.276Z,12.46
2023-04-17T17:26:46.393Z,12.42
2023-04-17T17:29:14.720Z,12.39
2023-04-17T17:31:44.855Z,12.35
2023-04-17T17:36:45.095Z,12.24
2023-04-17T17:39:14.133Z,12.19
2023-04-17T17:41:43.957Z,12.15
2023-04-17T17:44:13.708Z,12.11
2023-04-17T17:46:42.729Z,12.08
2023-04-17T17:49:11.007Z,12.04
2023-04-17T17:51:39.325Z,12.01
2023-04-17T17:54:08.117Z,11.99
2023-04-17T17:56:37.196Z,11.96
2023-04-17T17:59:05.365Z,11.94
2023-04-17T18:01:33.482Z,11.92
2023-04-17T18:04:02.543Z,11.89
2023-04-17T18:06:31.879Z,11.87
2023-04-17T18:09:00.672Z,11.84
2023-04-17T18:11:28.884Z,11.82
2023-04-17T18:13:57.340Z,11.81
2023-04-17T18:16:25.602Z,11.79
2023-04-17T18:18:53.705Z,11.77
2023-04-17T18:21:21.761Z,11.75
2023-04-17T18:23:49.799Z,11.72
2023-04-17T18:26:17.837Z,11.68
2023-04-17T18:28:45.969Z,11.65
2023-04-17T18:31:14.340Z,11.64
2023-04-17T18:33:42.693Z,11.62
2023-04-17T18:36:10.730Z,11.62
2023-04-17T18:38:39.019Z,11.60
2023-04-17T18:41:07.291Z,11.59
2023-04-17T18:43:35.535Z,11.57
2023-04-17T18:46:04.901Z,11.56
2023-04-17T18:48:34.590Z,11.54
2023-04-17T18:51:12.286Z,11.51
2023-04-17T18:53:40.852Z,11.48
2023-04-17T18:56:10.963Z,11.46
2023-04-17T18:58:40.695Z,11.42
2023-04-17T19:01:10.878Z,11.39
2023-04-17T19:03:39.638Z,11.37
2023-04-17T19:06:07.580Z,11.36
2023-04-17T19:08:36.795Z,11.33
2023-04-17T19:11:04.933Z,11.32
2023-04-17T19:13:34.142Z,11.31
2023-04-17T19:16:02.275Z,11.30
2023-04-17T19:18:37.065Z,11.28
2023-04-17T19:21:05.013Z,11.27
2023-04-17T19:23:33.655Z,11.25
2023-04-17T19:26:01.754Z,11.21
2023-04-17T19:28:31.278Z,11.20
2023-04-17T19:31:01.969Z,11.17
2023-04-17T19:33:33.340Z,11.14
2023-04-17T19:36:05.643Z,11.14
2023-04-17T19:38:34.128Z,11.11
2023-04-17T19:41:14.928Z,11.10
2023-04-17T19:43:47.586Z,11.10
2023-04-17T19:46:16.408Z,11.08
2023-04-17T19:48:45.002Z,11.05
2023-04-17T19:51:16.630Z,11.03
2023-04-17T19:53:46.058Z,11.02
2023-04-17T19:56:14.734Z,11.01
2023-04-17T19:58:42.998Z,11.01
2023-04-17T20:01:11.266Z,10.99
2023-04-17T20:03:42.173Z,10.99
2023-04-17T20:06:10.631Z,10.97
2023-04-17T20:08:41.752Z,10.95
2023-04-17T20:11:12.273Z,10.92
2023-04-17T20:13:44.605Z,10.90
2023-04-17T20:16:13.656Z,10.88
2023-04-17T20:18:43.569Z,10.86
2023-04-17T20:21:13.308Z,10.85
2023-04-17T20:23:41.345Z,10.84
2023-04-17T20:26:11.165Z,10.82
2023-04-17T20:28:39.163Z,10.82
2023-04-17T20:31:07.438Z,10.80
2023-04-17T20:33:38.080Z,10.78
2023-04-17T20:36:06.428Z,10.77
2023-04-17T20:38:34.526Z,10.74
2023-04-17T20:41:02.732Z,10.73
2023-04-17T20:43:34.782Z,10.71
2023-04-17T20:46:03.492Z,10.70
2023-04-17T20:48:31.916Z,10.68
2023-04-17T20:51:05.755Z,10.67
2023-04-17T20:53:34.458Z,10.63
2023-04-17T20:56:03.723Z,10.61
2023-04-17T20:58:32.344Z,10.60
2023-04-17T21:01:01.843Z,10.58
2023-04-17T21:03:31.116Z,10.56
2023-04-17T21:05:59.681Z,10.54
2023-04-17T21:08:28.347Z,10.51
2023-04-17T21:10:56.448Z,10.48
2023-04-17T21:13:24.703Z,10.46
2023-04-17T21:15:52.707Z,10.43
2023-04-17T21:18:22.224Z,10.40
2023-04-17T21:20:52.230Z,10.38
2023-04-17T21:23:21.267Z,10.35
2023-04-17T21:25:50.671Z,10.32
2023-04-17T21:28:20.219Z,10.29
2023-04-17T21:30:48.474Z,10.25
2023-04-17T21:33:17.168Z,10.21
2023-04-17T21:35:45.962Z,10.18
2023-04-17T21:38:16.127Z,10.15
2023-04-17T21:40:51.134Z,10.11
2023-04-17T21:43:21.043Z,10.07
2023-04-17T21:45:50.251Z,10.05
2023-04-17T21:48:19.193Z,10.02
2023-04-17T21:50:47.725Z,10.00
2023-04-17T21:53:16.467Z,9.97
2023-04-17T21:55:44.349Z,9.94
2023-04-17T21:58:12.763Z,9.91
2023-04-17T22:00:40.938Z,9.85
2023-04-17T22:03:09.351Z,9.82
2023-04-17T22:05:37.789Z,9.78
2023-04-17T22:08:06.579Z,9.75
2023-04-17T22:10:34.729Z,9.72
2023-04-17T22:13:02.909Z,9.70
2023-04-17T22:15:31.543Z,9.68
2023-04-17T22:17:59.524Z,9.66
2023-04-17T22:20:27.728Z,9.63
2023-04-17T22:22:55.909Z,9.60
2023-04-17T22:25:24.054Z,9.58
2023-04-17T22:27:52.349Z,9.54
2023-04-17T22:30:20.596Z,9.51
2023-04-17T22:32:48.829Z,9.47
2023-04-17T22:35:16.986Z,9.44
2023-04-17T22:37:45.401Z,9.41
2023-04-17T22:40:16.501Z,9.39
2023-04-17T22:42:44.926Z,9.35
2023-04-17T22:45:13.070Z,9.32
2023-04-17T22:47:42.106Z,9.29
2023-04-17T22:50:11.021Z,9.27
2023-04-17T22:52:40.136Z,9.24
2023-04-17T22:55:08.577Z,9.21
2023-04-17T22:57:37.144Z,9.18
2023-04-17T23:00:07.658Z,9.17
2023-04-17T23:02:36.922Z,9.14
2023-04-17T23:05:06.280Z,9.12
2023-04-17T23:07:34.520Z,9.10
2023-04-17T23:10:03.283Z,9.09
2023-04-17T23:12:31.689Z,9.08
2023-04-17T23:15:00.036Z,9.07
2023-04-17T23:17:28.350Z,9.04
2023-04-17T23:19:56.576Z,9.02
2023-04-17T23:22:25.020Z,9.02
2023-04-17T23:24:53.467Z,9.01
2023-04-17T23:27:21.708Z,9.01
2023-04-17T23:29:49.888Z,9.02
2023-04-17T23:32:18.408Z,9.01
2023-04-17T23:34:46.537Z,9.01
2023-04-17T23:37:15.390Z,8.99
2023-04-17T23:39:43.390Z,9.00
2023-04-17T23:42:11.457Z,8.99
2023-04-17T23:44:39.607Z,8.99
2023-04-17T23:47:08.042Z,8.98
2023-04-17T23:49:36.314Z,8.97
2023-04-17T23:52:04.785Z,8.96
2023-04-17T23:54:33.301Z,8.96
2023-04-17T23:57:02.197Z,8.96
2023-04-17T23:59:30.394Z,8.95
